Time;durP1;ratioP1;P1;durP2;ratioP2;P2;SDS_P1;SDS_P2;PMS_P1;PMS_P2;Temp;Humidity;BMP_temperature;BMP_pressure;BME280_temperature;BME280_humidity;BME280_pressure;Samples;Min_cycle;Max_cycle;Signal;HPM_P1;HPM_P2
2021/01/27 00:00:09;;;;;;;4.93;2.38;;;;;;;;;;6237036;28;20125;-69
2021/01/27 00:03:11;;;;;;;3.45;2.40;;;;;;;;;;6231596;28;20049;-70
2021/01/27 00:06:13;;;;;;;8.98;2.65;;;;;;;;;;6235310;28;20425;-70
2021/01/27 00:09:14;;;;;;;3.47;2.10;;;;;;;;;;6233584;28;20358;-70
2021/01/27 00:12:15;;;;;;;4.82;2.38;;;;;;;;;;6232953;28;20041;-71
2021/01/27 00:15:18;;;;;;;4.13;2.42;;;;;;;;;;6235266;28;20152;-70
2021/01/27 00:18:20;;;;;;;6.50;2.53;;;;;;;;;;6228416;28;20041;-70
2021/01/27 00:21:22;;;;;;;4.30;2.10;;;;;;;;;;6234295;28;20049;-70
2021/01/27 00:24:23;;;;;;;5.15;3.03;;;;;;;;;;6237697;28;20067;-71
2021/01/27 00:27:24;;;;;;;5.43;2.92;;;;;;;;;;6236550;28;20125;-70
2021/01/27 00:30:27;;;;;;;3.95;2.20;;;;;;;;;;6238557;28;20555;-70
2021/01/27 00:33:28;;;;;;;4.20;2.45;;;;;;;;;;6239568;28;20050;-70
2021/01/27 00:36:30;;;;;;;2.97;1.67;;;;;;;;;;6239780;28;20038;-70
2021/01/27 00:39:31;;;;;;;3.60;2.05;;;;;;;;;;6233425;28;20561;-69
2021/01/27 00:42:33;;;;;;;6.63;2.28;;;;;;;;;;6235386;28;20076;-70
2021/01/27 00:45:34;;;;;;;5.28;2.28;;;;;;;;;;6234355;28;20115;-70
2021/01/27 00:48:35;;;;;;;3.47;1.95;;;;;;;;;;6236049;28;20137;-71
2021/01/27 00:51:38;;;;;;;4.65;1.80;;;;;;;;;;6236622;28;20128;-70
2021/01/27 00:54:39;;;;;;;5.68;2.35;;;;;;;;;;6237193;28;20175;-70
2021/01/27 00:57:40;;;;;;;6.05;2.30;;;;;;;;;;6235824;28;20493;-70
2021/01/27 01:00:42;;;;;;;9.07;2.33;;;;;;;;;;6238943;28;20115;-71
2021/01/27 01:03:43;;;;;;;12.60;2.72;;;;;;;;;;6236401;28;20128;-70
2021/01/27 01:06:45;;;;;;;6.05;2.05;;;;;;;;;;6234588;28;20048;-70
2021/01/27 01:09:46;;;;;;;8.32;2.10;;;;;;;;;;6234689;28;20061;-70
2021/01/27 01:12:47;;;;;;;3.85;1.73;;;;;;;;;;6231930;28;20124;-70
2021/01/27 01:15:48;;;;;;;5.70;2.53;;;;;;;;;;6235869;28;20046;-72
2021/01/27 01:18:49;;;;;;;5.35;2.35;;;;;;;;;;6247476;28;20124;-70
2021/01/27 01:21:51;;;;;;;4.25;2.38;;;;;;;;;;6230632;28;20065;-70
2021/01/27 01:24:52;;;;;;;6.00;2.90;;;;;;;;;;6230508;28;20053;-69
2021/01/27 01:27:54;;;;;;;4.95;2.55;;;;;;;;;;6229819;28;20075;-69
2021/01/27 01:30:55;;;;;;;4.15;2.28;;;;;;;;;;6233802;28;20187;-70
2021/01/27 01:33:56;;;;;;;8.82;2.95;;;;;;;;;;6233733;28;20140;-70
2021/01/27 01:36:58;;;;;;;5.00;2.65;;;;;;;;;;6238131;28;20058;-70
2021/01/27 01:39:59;;;;;;;12.32;3.08;;;;;;;;;;6227456;28;20136;-69
2021/01/27 01:43:02;;;;;;;4.97;2.42;;;;;;;;;;6214854;28;20555;-69
2021/01/27 01:46:05;;;;;;;4.15;2.58;;;;;;;;;;6235023;28;20144;-70
2021/01/27 01:49:09;;;;;;;8.87;3.00;;;;;;;;;;6229681;28;20417;-70
2021/01/27 01:52:11;;;;;;;5.40;2.73;;;;;;;;;;6212663;28;20091;-72
2021/01/27 01:55:13;;;;;;;7.50;2.72;;;;;;;;;;6233139;28;20609;-69
2021/01/27 01:58:14;;;;;;;7.05;3.00;;;;;;;;;;6230248;28;20048;-71
2021/01/27 02:01:15;;;;;;;4.75;2.53;;;;;;;;;;6234896;28;20049;-70
2021/01/27 02:04:16;;;;;;;6.43;2.88;;;;;;;;;;6229401;28;20049;-69
2021/01/27 02:07:18;;;;;;;6.68;2.50;;;;;;;;;;6238399;28;20045;-70
2021/01/27 02:10:20;;;;;;;6.90;2.80;;;;;;;;;;6226842;28;20050;-70
2021/01/27 02:14:01;;;;;;;7.18;3.47;;;;;;;;;;6230756;28;20053;-71
2021/01/27 02:17:05;;;;;;;8.07;2.92;;;;;;;;;;6232502;28;20118;-70
2021/01/27 02:20:33;;;;;;;8.52;2.97;;;;;;;;;;6231793;28;20049;-69
2021/01/27 02:23:48;;;;;;;6.90;3.10;;;;;;;;;;6228863;28;20087;-70
2021/01/27 02:27:05;;;;;;;7.78;3.00;;;;;;;;;;6233617;28;20053;-70
2021/01/27 02:30:34;;;;;;;5.88;2.72;;;;;;;;;;6233835;28;20049;-70
2021/01/27 02:33:54;;;;;;;5.95;2.78;;;;;;;;;;6220250;28;20488;-71
2021/01/27 02:36:59;;;;;;;7.10;2.40;;;;;;;;;;6231918;28;20045;-69
2021/01/27 02:40:06;;;;;;;4.75;2.60;;;;;;;;;;6220126;28;20136;-71
2021/01/27 02:43:13;;;;;;;4.95;2.45;;;;;;;;;;6226620;28;20045;-72
2021/01/27 02:46:17;;;;;;;5.65;2.90;;;;;;;;;;6242159;28;20056;-70
2021/01/27 02:49:21;;;;;;;6.85;2.38;;;;;;;;;;6233593;28;20052;-70
2021/01/27 02:52:29;;;;;;;3.72;2.15;;;;;;;;;;6227684;28;20132;-69
2021/01/27 02:55:34;;;;;;;5.63;2.60;;;;;;;;;;6227547;28;20118;-70
2021/01/27 02:58:40;;;;;;;5.80;2.33;;;;;;;;;;6234918;28;20070;-70
2021/01/27 03:01:45;;;;;;;5.18;2.15;;;;;;;;;;6233746;28;20056;-70
2021/01/27 03:04:53;;;;;;;5.15;2.40;;;;;;;;;;6238162;28;20530;-70
2021/01/27 03:07:59;;;;;;;4.15;2.30;;;;;;;;;;6234789;28;20057;-69
2021/01/27 03:11:05;;;;;;;5.30;2.42;;;;;;;;;;6210057;28;20160;-69
2021/01/27 03:14:07;;;;;;;4.38;2.20;;;;;;;;;;6242863;28;20411;-69
2021/01/27 03:17:11;;;;;;;3.72;2.22;;;;;;;;;;6239575;28;20053;-69
2021/01/27 03:20:16;;;;;;;3.38;2.33;;;;;;;;;;6238218;28;20744;-70
2021/01/27 03:23:22;;;;;;;5.97;2.05;;;;;;;;;;6230757;28;20053;-69
2021/01/27 03:26:27;;;;;;;3.72;2.17;;;;;;;;;;6231632;28;20049;-69
2021/01/27 03:29:35;;;;;;;4.82;2.35;;;;;;;;;;6239511;28;20045;-70
2021/01/27 03:32:41;;;;;;;5.13;2.13;;;;;;;;;;6234446;28;20067;-71
2021/01/27 03:35:45;;;;;;;4.43;2.25;;;;;;;;;;6234420;28;20060;-70
2021/01/27 03:38:49;;;;;;;4.68;2.25;;;;;;;;;;6229145;28;20053;-69
2021/01/27 03:41:53;;;;;;;5.50;2.42;;;;;;;;;;6237566;28;20056;-69
2021/01/27 03:44:57;;;;;;;4.50;2.20;;;;;;;;;;6231085;28;20392;-70
2021/01/27 03:48:06;;;;;;;4.38;2.05;;;;;;;;;;6233491;28;20052;-70
2021/01/27 03:51:07;;;;;;;7.05;2.20;;;;;;;;;;6228047;28;20060;-67
2021/01/27 03:54:15;;;;;;;4.88;2.13;;;;;;;;;;6233231;28;20056;-68
2021/01/27 03:57:20;;;;;;;7.22;2.50;;;;;;;;;;6232191;28;20048;-68
2021/01/27 04:00:22;;;;;;;4.25;2.17;;;;;;;;;;6232835;28;20102;-68
2021/01/27 04:03:23;;;;;;;5.80;2.20;;;;;;;;;;6228286;28;20142;-69
2021/01/27 04:06:24;;;;;;;7.90;2.80;;;;;;;;;;6228116;28;20041;-67
2021/01/27 04:09:26;;;;;;;3.83;2.38;;;;;;;;;;6232205;28;20075;-68
2021/01/27 04:12:27;;;;;;;4.93;2.30;;;;;;;;;;6231332;28;20050;-69
2021/01/27 04:15:28;;;;;;;4.97;2.92;;;;;;;;;;6228978;28;20073;-69
2021/01/27 04:18:29;;;;;;;3.70;2.20;;;;;;;;;;6220422;28;20574;-68
2021/01/27 04:21:30;;;;;;;4.95;2.60;;;;;;;;;;6232208;28;20141;-69
2021/01/27 04:24:32;;;;;;;8.48;3.03;;;;;;;;;;6233062;28;20084;-68
2021/01/27 04:27:33;;;;;;;6.10;2.40;;;;;;;;;;6233417;28;20068;-68
2021/01/27 04:30:35;;;;;;;4.75;2.45;;;;;;;;;;6235928;28;20077;-68
2021/01/27 04:33:38;;;;;;;5.30;2.63;;;;;;;;;;6237003;28;20060;-68
2021/01/27 04:36:39;;;;;;;4.63;2.65;;;;;;;;;;6234179;28;20136;-67
2021/01/27 04:39:41;;;;;;;6.55;2.92;;;;;;;;;;6231668;28;20439;-68
2021/01/27 04:42:42;;;;;;;9.30;3.22;;;;;;;;;;6240013;28;20068;-67
2021/01/27 04:45:45;;;;;;;5.38;2.70;;;;;;;;;;6230914;28;20102;-68
2021/01/27 04:48:55;;;;;;;5.77;2.97;;;;;;;;;;6235075;28;20053;-68
2021/01/27 04:51:58;;;;;;;5.30;2.90;;;;;;;;;;6230910;28;20076;-69
2021/01/27 04:55:08;;;;;;;6.25;3.25;;;;;;;;;;6231907;28;20589;-68
2021/01/27 04:58:15;;;;;;;8.80;3.00;;;;;;;;;;6232800;28;20042;-68
2021/01/27 05:01:27;;;;;;;6.05;3.00;;;;;;;;;;6233601;28;20172;-68
2021/01/27 05:04:35;;;;;;;3.78;2.53;;;;;;;;;;6235255;28;20149;-68
2021/01/27 05:07:50;;;;;;;7.13;2.80;;;;;;;;;;6229183;28;20133;-69
2021/01/27 05:10:55;;;;;;;9.65;3.25;;;;;;;;;;6229063;28;20548;-68
2021/01/27 05:13:58;;;;;;;7.45;2.78;;;;;;;;;;6229133;28;20050;-69
2021/01/27 05:17:03;;;;;;;7.25;2.90;;;;;;;;;;6231182;28;20427;-68
2021/01/27 05:20:05;;;;;;;13.27;2.65;;;;;;;;;;6222839;28;20045;-68
2021/01/27 05:23:06;;;;;;;5.88;2.78;;;;;;;;;;6209320;28;20078;-68
2021/01/27 05:26:11;;;;;;;9.32;2.63;;;;;;;;;;6188521;28;20092;-68
2021/01/27 05:29:16;;;;;;;5.43;2.95;;;;;;;;;;6186142;28;20052;-68
2021/01/27 05:32:18;;;;;;;6.53;2.78;;;;;;;;;;6181587;28;20051;-69
2021/01/27 05:35:27;;;;;;;4.07;2.30;;;;;;;;;;6187179;28;20047;-68
2021/01/27 05:38:30;;;;;;;4.90;2.65;;;;;;;;;;6186874;28;20130;-68
2021/01/27 05:41:32;;;;;;;5.07;2.83;;;;;;;;;;6187311;28;20074;-68
2021/01/27 05:44:33;;;;;;;9.00;2.55;;;;;;;;;;6185254;28;20081;-68
2021/01/27 05:47:37;;;;;;;9.95;3.10;;;;;;;;;;6185673;28;20038;-68
2021/01/27 05:50:39;;;;;;;8.45;2.97;;;;;;;;;;6183811;28;20679;-69
2021/01/27 05:53:40;;;;;;;12.77;3.30;;;;;;;;;;6187176;28;20543;-68
2021/01/27 05:56:42;;;;;;;9.70;2.83;;;;;;;;;;6185087;28;20050;-68
2021/01/27 05:59:45;;;;;;;12.23;3.33;;;;;;;;;;6184993;28;20043;-68
2021/01/27 06:02:46;;;;;;;10.93;2.90;;;;;;;;;;6182083;28;20058;-69
2021/01/27 06:05:47;;;;;;;10.50;2.85;;;;;;;;;;6183618;28;20050;-68
2021/01/27 06:08:51;;;;;;;8.73;2.88;;;;;;;;;;6186648;28;20042;-68
2021/01/27 06:11:59;;;;;;;13.43;3.50;;;;;;;;;;6191045;28;20056;-68
2021/01/27 06:15:13;;;;;;;9.43;3.00;;;;;;;;;;6186144;28;20046;-69
2021/01/27 06:18:26;;;;;;;8.93;3.13;;;;;;;;;;6184989;28;20509;-70
2021/01/27 06:22:06;;;;;;;9.88;3.15;;;;;;;;;;6187809;28;20845;-68
2021/01/27 06:25:19;;;;;;;8.15;2.85;;;;;;;;;;6167876;28;20042;-68
2021/01/27 06:28:44;;;;;;;13.15;3.78;;;;;;;;;;6187120;28;20125;-67
2021/01/27 06:32:09;;;;;;;6.45;3.00;;;;;;;;;;6184324;28;20433;-67
2021/01/27 06:35:32;;;;;;;5.80;2.90;;;;;;;;;;6190650;28;20042;-67
2021/01/27 06:38:39;;;;;;;13.60;2.83;;;;;;;;;;6183583;28;20485;-68
2021/01/27 06:41:57;;;;;;;10.68;3.40;;;;;;;;;;6178062;28;20046;-68
2021/01/27 06:45:08;;;;;;;9.45;3.25;;;;;;;;;;6183022;28;20052;-68
2021/01/27 06:48:18;;;;;;;12.55;3.30;;;;;;;;;;6186472;28;20052;-69
2021/01/27 06:51:36;;;;;;;9.43;3.35;;;;;;;;;;6194963;28;20522;-68
2021/01/27 06:54:54;;;;;;;9.95;3.40;;;;;;;;;;6184169;28;20046;-68
2021/01/27 06:58:20;;;;;;;8.52;3.15;;;;;;;;;;6180201;28;20042;-67
2021/01/27 07:01:41;;;;;;;8.90;3.47;;;;;;;;;;6184561;28;20473;-67
2021/01/27 07:04:59;;;;;;;8.73;3.13;;;;;;;;;;6183410;28;20045;-68
2021/01/27 07:08:09;;;;;;;12.43;3.40;;;;;;;;;;6181936;28;20049;-68
2021/01/27 07:11:14;;;;;;;13.75;3.17;;;;;;;;;;6181242;28;21369;-68
2021/01/27 07:14:29;;;;;;;16.02;3.50;;;;;;;;;;6178988;28;20051;-67
2021/01/27 07:18:03;;;;;;;14.05;4.05;;;;;;;;;;6188520;28;20066;-69
2021/01/27 07:21:08;;;;;;;13.95;3.35;;;;;;;;;;6137334;28;20109;-69
2021/01/27 07:24:17;;;;;;;10.23;3.90;;;;;;;;;;6229428;28;20057;-69
2021/01/27 07:27:19;;;;;;;10.63;2.65;;;;;;;;;;6226590;28;20065;-69
2021/01/27 07:30:32;;;;;;;11.55;3.05;;;;;;;;;;6229063;28;20444;-70
2021/01/27 07:33:38;;;;;;;11.45;3.05;;;;;;;;;;6228080;28;20081;-68
2021/01/27 07:36:47;;;;;;;13.18;3.35;;;;;;;;;;6232320;28;20065;-68
2021/01/27 07:39:54;;;;;;;7.40;3.25;;;;;;;;;;6232427;28;20051;-67
2021/01/27 07:42:58;;;;;;;16.88;3.95;;;;;;;;;;6230087;28;20073;-68
2021/01/27 07:45:59;;;;;;;8.68;2.75;;;;;;;;;;6229547;28;20045;-68
2021/01/27 07:49:02;;;;;;;12.15;3.35;;;;;;;;;;6233297;28;20081;-68
2021/01/27 07:52:14;;;;;;;7.78;2.85;;;;;;;;;;6230620;28;20048;-68
2021/01/27 07:55:18;;;;;;;17.05;3.92;;;;;;;;;;6234355;28;20118;-67
2021/01/27 07:58:24;;;;;;;10.30;3.33;;;;;;;;;;6231553;28;20154;-68
2021/01/27 08:01:29;;;;;;;8.90;3.35;;;;;;;;;;6229106;28;20073;-68
2021/01/27 08:04:34;;;;;;;22.98;4.70;;;;;;;;;;6225706;28;20045;-68
2021/01/27 08:07:40;;;;;;;18.52;5.30;;;;;;;;;;6232308;28;20071;-67
2021/01/27 08:10:41;;;;;;;12.00;4.70;;;;;;;;;;6226625;28;20055;-68
2021/01/27 08:13:44;;;;;;;15.38;5.35;;;;;;;;;;6231975;28;20055;-68
2021/01/27 08:16:47;;;;;;;14.02;4.57;;;;;;;;;;6230237;28;20045;-67
2021/01/27 08:20:23;;;;;;;13.88;5.45;;;;;;;;;;6221548;28;20419;-69
2021/01/27 08:23:47;;;;;;;12.43;3.70;;;;;;;;;;6225770;28;20045;-68
2021/01/27 08:26:50;;;;;;;13.70;4.18;;;;;;;;;;6230230;28;20057;-68
2021/01/27 08:30:27;;;;;;;17.05;4.85;;;;;;;;;;6227735;28;20063;-68
2021/01/27 08:33:42;;;;;;;11.40;4.05;;;;;;;;;;6229119;28;20227;-68
2021/01/27 08:37:04;;;;;;;12.57;5.05;;;;;;;;;;6234050;28;20128;-68
2021/01/27 08:40:12;;;;;;;10.65;4.82;;;;;;;;;;6226990;28;20400;-68
2021/01/27 08:43:14;;;;;;;14.57;5.65;;;;;;;;;;6226956;28;20497;-67
2021/01/27 08:46:26;;;;;;;14.18;6.07;;;;;;;;;;6231946;28;20049;-68
2021/01/27 08:49:46;;;;;;;21.50;6.80;;;;;;;;;;6224573;28;20061;-68
2021/01/27 08:52:48;;;;;;;23.63;7.18;;;;;;;;;;6231177;28;20046;-67
2021/01/27 08:55:55;;;;;;;15.07;6.50;;;;;;;;;;6232038;28;20132;-68
2021/01/27 08:59:29;;;;;;;11.15;5.55;;;;;;;;;;6236667;28;20128;-69
2021/01/27 09:02:48;;;;;;;13.93;5.55;;;;;;;;;;6230528;28;20050;-69
2021/01/27 09:05:49;;;;;;;4.07;2.45;;;;;;;;;;6233536;28;20056;-67
2021/01/27 09:08:52;;;;;;;4.50;2.28;;;;;;;;;;6238434;28;20852;-69
2021/01/27 09:11:58;;;;;;;8.02;3.40;;;;;;;;;;6239390;28;20079;-69
2021/01/27 09:14:59;;;;;;;4.18;2.60;;;;;;;;;;6233175;28;20069;-67
2021/01/27 09:18:03;;;;;;;8.43;3.63;;;;;;;;;;6235051;28;20045;-68
2021/01/27 09:21:10;;;;;;;9.05;3.80;;;;;;;;;;6236894;28;20065;-69
2021/01/27 09:24:21;;;;;;;10.23;4.18;;;;;;;;;;6217307;28;594247;-67
2021/01/27 09:27:24;;;;;;;8.95;3.60;;;;;;;;;;6229442;28;20056;-68
2021/01/27 09:30:27;;;;;;;6.72;2.60;;;;;;;;;;6236257;28;20571;-68
2021/01/27 09:33:32;;;;;;;9.15;2.80;;;;;;;;;;6233901;28;20053;-69
2021/01/27 09:36:33;;;;;;;8.20;3.13;;;;;;;;;;6232256;28;20050;-68
2021/01/27 09:39:37;;;;;;;9.25;3.67;;;;;;;;;;6230126;28;20483;-69
2021/01/27 09:42:39;;;;;;;9.48;2.95;;;;;;;;;;6231107;28;20053;-67
2021/01/27 09:45:42;;;;;;;6.90;4.03;;;;;;;;;;6233630;28;20053;-69
2021/01/27 09:48:43;;;;;;;9.63;4.40;;;;;;;;;;6235524;28;20037;-68
2021/01/27 09:51:52;;;;;;;10.27;5.00;;;;;;;;;;6236403;28;20045;-68
2021/01/27 09:54:59;;;;;;;8.77;4.10;;;;;;;;;;6233308;28;20056;-68
2021/01/27 09:58:04;;;;;;;6.35;3.10;;;;;;;;;;6233761;28;20090;-68
2021/01/27 10:01:07;;;;;;;5.35;2.88;;;;;;;;;;6234049;28;20116;-68
2021/01/27 10:04:10;;;;;;;5.18;3.70;;;;;;;;;;6236076;28;20053;-68
2021/01/27 10:07:14;;;;;;;7.45;4.15;;;;;;;;;;6237640;28;20037;-69
2021/01/27 10:10:18;;;;;;;8.35;4.65;;;;;;;;;;6235020;28;20068;-70
2021/01/27 10:13:31;;;;;;;9.07;5.22;;;;;;;;;;6232446;28;20543;-70
2021/01/27 10:16:33;;;;;;;7.68;5.63;;;;;;;;;;6231761;28;20061;-68
2021/01/27 10:19:36;;;;;;;8.88;5.97;;;;;;;;;;6234377;28;20057;-68
2021/01/27 10:22:38;;;;;;;14.43;5.90;;;;;;;;;;6234165;28;20049;-69
2021/01/27 10:25:42;;;;;;;9.07;4.03;;;;;;;;;;6235165;28;20103;-69
2021/01/27 10:28:43;;;;;;;4.65;2.55;;;;;;;;;;6236126;28;20046;-68
2021/01/27 10:31:47;;;;;;;5.35;2.88;;;;;;;;;;6226555;28;20045;-69
2021/01/27 10:34:49;;;;;;;5.93;2.13;;;;;;;;;;6230523;28;20321;-69
2021/01/27 10:37:50;;;;;;;5.18;2.30;;;;;;;;;;6230050;28;20073;-70
2021/01/27 10:41:07;;;;;;;4.03;2.30;;;;;;;;;;6235084;28;20060;-69
2021/01/27 10:44:19;;;;;;;7.55;2.63;;;;;;;;;;6233289;28;20061;-68
2021/01/27 10:47:29;;;;;;;6.05;2.80;;;;;;;;;;6234662;28;20176;-69
2021/01/27 10:50:30;;;;;;;7.97;2.55;;;;;;;;;;6230969;28;20402;-69
2021/01/27 10:53:36;;;;;;;6.93;2.13;;;;;;;;;;6236986;28;20198;-69
2021/01/27 10:56:38;;;;;;;3.13;1.88;;;;;;;;;;6233381;28;20038;-69
2021/01/27 10:59:39;;;;;;;7.55;2.13;;;;;;;;;;6230409;28;20054;-69
2021/01/27 11:02:40;;;;;;;4.78;1.90;;;;;;;;;;6231294;28;20068;-69
2021/01/27 11:05:41;;;;;;;4.32;1.88;;;;;;;;;;6234650;28;20045;-69
2021/01/27 11:08:44;;;;;;;6.38;2.20;;;;;;;;;;6230560;28;20049;-70
2021/01/27 11:11:45;;;;;;;4.25;2.15;;;;;;;;;;6233791;28;20049;-69
2021/01/27 11:14:47;;;;;;;7.38;2.45;;;;;;;;;;6226110;28;20099;-70
2021/01/27 11:17:49;;;;;;;7.90;2.30;;;;;;;;;;6230886;28;20385;-70
2021/01/27 11:20:50;;;;;;;7.25;1.98;;;;;;;;;;6224930;28;20041;-69
2021/01/27 11:23:51;;;;;;;5.72;2.40;;;;;;;;;;6233882;28;20248;-70
2021/01/27 11:26:53;;;;;;;5.65;2.30;;;;;;;;;;6225082;28;20065;-70
2021/01/27 11:29:54;;;;;;;5.43;2.50;;;;;;;;;;6229198;28;20144;-71
2021/01/27 11:32:55;;;;;;;7.53;2.30;;;;;;;;;;6225103;28;20065;-71
2021/01/27 11:35:56;;;;;;;5.35;2.50;;;;;;;;;;6221899;28;20046;-69
2021/01/27 11:38:58;;;;;;;6.85;3.50;;;;;;;;;;6218631;28;20061;-70
2021/01/27 11:42:00;;;;;;;7.00;2.72;;;;;;;;;;6229886;28;20095;-69
2021/01/27 11:45:01;;;;;;;6.68;2.40;;;;;;;;;;6226927;28;20061;-69
2021/01/27 11:48:02;;;;;;;7.00;2.40;;;;;;;;;;6227534;28;20117;-70
2021/01/27 11:51:03;;;;;;;5.18;2.40;;;;;;;;;;6230425;28;20057;-70
2021/01/27 11:54:04;;;;;;;6.25;2.28;;;;;;;;;;6233130;28;20079;-71
2021/01/27 11:57:07;;;;;;;9.13;2.53;;;;;;;;;;6206445;28;20061;-70
2021/01/27 12:00:09;;;;;;;4.88;2.20;;;;;;;;;;6225479;28;20498;-70
2021/01/27 12:03:10;;;;;;;4.50;2.40;;;;;;;;;;6224942;28;20670;-69
2021/01/27 12:06:11;;;;;;;9.43;2.50;;;;;;;;;;6225669;28;20049;-70
2021/01/27 12:09:12;;;;;;;4.63;2.60;;;;;;;;;;6226078;28;20063;-69
2021/01/27 12:12:14;;;;;;;7.32;2.25;;;;;;;;;;6226758;28;20412;-70
2021/01/27 12:15:16;;;;;;;10.60;2.90;;;;;;;;;;6232306;28;20048;-69
2021/01/27 12:18:17;;;;;;;4.28;2.55;;;;;;;;;;6225683;28;20062;-69
2021/01/27 12:21:18;;;;;;;9.48;5.15;;;;;;;;;;6230753;28;20045;-69
2021/01/27 12:24:19;;;;;;;9.52;6.22;;;;;;;;;;6231804;28;20084;-69
2021/01/27 12:27:21;;;;;;;14.35;5.10;;;;;;;;;;6231088;28;20056;-70
2021/01/27 12:30:22;;;;;;;8.10;4.65;;;;;;;;;;6233100;28;20045;-69
2021/01/27 12:33:24;;;;;;;12.40;5.57;;;;;;;;;;6235035;28;20060;-69
2021/01/27 12:36:25;;;;;;;8.32;5.00;;;;;;;;;;6233506;28;20500;-73
2021/01/27 12:39:26;;;;;;;11.93;6.45;;;;;;;;;;6234386;28;20051;-68
2021/01/27 12:42:28;;;;;;;13.50;6.00;;;;;;;;;;6233586;28;20101;-71
2021/01/27 12:45:30;;;;;;;7.03;4.72;;;;;;;;;;6230985;28;20142;-71
2021/01/27 12:48:31;;;;;;;12.43;4.90;;;;;;;;;;6230399;28;20057;-70
2021/01/27 12:51:34;;;;;;;7.35;4.55;;;;;;;;;;6236924;28;20045;-68
2021/01/27 12:54:35;;;;;;;9.85;4.68;;;;;;;;;;6229613;28;20420;-68
2021/01/27 12:57:39;;;;;;;9.82;5.03;;;;;;;;;;6230577;28;20049;-70
2021/01/27 13:00:40;;;;;;;9.23;5.30;;;;;;;;;;6228339;28;20500;-69
2021/01/27 13:03:41;;;;;;;8.75;5.05;;;;;;;;;;6231702;28;20064;-69
2021/01/27 13:06:42;;;;;;;11.38;5.10;;;;;;;;;;6229341;28;20069;-69
2021/01/27 13:09:43;;;;;;;11.02;5.55;;;;;;;;;;6225517;28;20071;-69
2021/01/27 13:12:45;;;;;;;9.15;5.65;;;;;;;;;;6220098;28;20091;-69
2021/01/27 13:15:47;;;;;;;6.80;4.80;;;;;;;;;;6223832;28;20057;-70
2021/01/27 13:18:48;;;;;;;9.30;5.20;;;;;;;;;;6225561;28;20149;-69
2021/01/27 13:21:49;;;;;;;8.18;4.82;;;;;;;;;;6229775;28;20136;-70
2021/01/27 13:24:50;;;;;;;7.32;4.80;;;;;;;;;;6216034;28;20050;-71
2021/01/27 13:27:52;;;;;;;7.68;5.10;;;;;;;;;;6227757;28;20044;-70
2021/01/27 13:30:55;;;;;;;12.02;6.10;;;;;;;;;;6229630;28;20423;-69
2021/01/27 13:33:57;;;;;;;8.35;5.47;;;;;;;;;;6228337;28;20049;-71
2021/01/27 13:36:58;;;;;;;10.80;5.38;;;;;;;;;;6224556;28;20750;-70
2021/01/27 13:39:59;;;;;;;9.00;5.95;;;;;;;;;;6233751;28;20053;-69
2021/01/27 13:43:01;;;;;;;9.40;5.55;;;;;;;;;;6230332;28;20049;-69
2021/01/27 13:46:03;;;;;;;8.68;5.82;;;;;;;;;;6232288;28;20102;-70
2021/01/27 13:49:04;;;;;;;11.50;6.60;;;;;;;;;;6232095;28;20083;-71
2021/01/27 13:52:05;;;;;;;9.40;5.70;;;;;;;;;;6235068;28;20049;-70
2021/01/27 13:55:07;;;;;;;11.73;6.35;;;;;;;;;;6235351;28;20053;-70
2021/01/27 13:58:09;;;;;;;9.48;5.95;;;;;;;;;;6235382;28;20060;-68
2021/01/27 14:01:10;;;;;;;10.65;6.20;;;;;;;;;;6236223;28;20071;-70
2021/01/27 14:04:11;;;;;;;9.43;6.82;;;;;;;;;;6233521;28;20111;-69
2021/01/27 14:07:12;;;;;;;14.50;7.05;;;;;;;;;;6230536;28;20144;-69
2021/01/27 14:10:13;;;;;;;11.18;6.10;;;;;;;;;;6231442;28;20095;-70
2021/01/27 14:13:15;;;;;;;14.20;6.50;;;;;;;;;;6230193;28;20111;-70
2021/01/27 14:16:16;;;;;;;14.00;6.28;;;;;;;;;;6231031;28;20045;-72
2021/01/27 14:19:17;;;;;;;11.40;7.05;;;;;;;;;;6225978;28;20069;-69
2021/01/27 14:22:18;;;;;;;9.63;6.57;;;;;;;;;;6231610;28;20319;-69
2021/01/27 14:25:20;;;;;;;10.70;6.20;;;;;;;;;;6233179;28;20575;-71
2021/01/27 14:28:22;;;;;;;8.40;5.90;;;;;;;;;;6229879;28;20049;-69
2021/01/27 14:31:24;;;;;;;12.60;6.55;;;;;;;;;;6230288;28;20121;-69
2021/01/27 14:34:25;;;;;;;9.13;5.88;;;;;;;;;;6230522;28;21569;-69
2021/01/27 14:37:26;;;;;;;11.82;6.18;;;;;;;;;;6234909;28;20049;-69
2021/01/27 14:40:29;;;;;;;10.48;5.85;;;;;;;;;;6232964;28;20049;-69
2021/01/27 14:43:30;;;;;;;9.73;6.03;;;;;;;;;;6227344;28;20484;-69
2021/01/27 14:46:31;;;;;;;11.45;6.15;;;;;;;;;;6228078;28;20667;-69
2021/01/27 14:49:33;;;;;;;11.02;6.45;;;;;;;;;;6229491;28;20481;-69
2021/01/27 14:52:34;;;;;;;10.95;6.15;;;;;;;;;;6229591;28;20738;-70
2021/01/27 14:55:35;;;;;;;9.15;6.40;;;;;;;;;;6227829;28;20408;-68
2021/01/27 14:58:37;;;;;;;8.63;6.13;;;;;;;;;;6229697;28;20054;-69
2021/01/27 15:01:38;;;;;;;12.43;6.22;;;;;;;;;;6230463;28;20408;-70
2021/01/27 15:04:39;;;;;;;11.90;6.70;;;;;;;;;;6229420;28;20059;-69
2021/01/27 15:07:40;;;;;;;13.27;6.80;;;;;;;;;;6226985;28;20063;-69
2021/01/27 15:10:41;;;;;;;11.90;6.45;;;;;;;;;;6230232;28;20137;-71
2021/01/27 15:13:43;;;;;;;14.80;6.43;;;;;;;;;;6232158;28;20034;-69
2021/01/27 15:16:44;;;;;;;11.73;6.60;;;;;;;;;;6231208;28;20164;-69
2021/01/27 15:19:45;;;;;;;14.98;6.38;;;;;;;;;;5538513;28;10000702;-69
2021/01/27 15:22:46;;;;;;;15.57;6.90;;;;;;;;;;6223606;28;20163;-70
2021/01/27 15:25:47;;;;;;;10.38;6.78;;;;;;;;;;6219697;28;20156;-70
2021/01/27 15:28:49;;;;;;;10.45;6.13;;;;;;;;;;6231564;28;20056;-68
2021/01/27 15:31:50;;;;;;;16.17;6.38;;;;;;;;;;6228745;28;20064;-68
2021/01/27 15:34:51;;;;;;;12.38;6.38;;;;;;;;;;6224168;28;20152;-70
2021/01/27 15:37:52;;;;;;;11.35;6.60;;;;;;;;;;6227251;28;20274;-69
2021/01/27 15:40:53;;;;;;;13.18;6.95;;;;;;;;;;6230459;28;20045;-69
2021/01/27 15:43:55;;;;;;;11.32;6.13;;;;;;;;;;6221726;28;20060;-71
2021/01/27 15:46:56;;;;;;;19.40;6.70;;;;;;;;;;6225101;28;20103;-69
2021/01/27 15:49:57;;;;;;;16.55;7.00;;;;;;;;;;6223710;28;20497;-69
2021/01/27 15:52:58;;;;;;;11.02;6.45;;;;;;;;;;6225081;28;20045;-70
2021/01/27 15:55:59;;;;;;;16.23;6.53;;;;;;;;;;6224219;28;20052;-68
2021/01/27 15:59:01;;;;;;;11.43;6.25;;;;;;;;;;6229677;28;20139;-69
2021/01/27 16:02:05;;;;;;;11.45;6.82;;;;;;;;;;6232161;28;20157;-70
2021/01/27 16:05:08;;;;;;;10.82;6.78;;;;;;;;;;6231632;28;20053;-69
2021/01/27 16:08:09;;;;;;;12.02;6.78;;;;;;;;;;6231236;28;20045;-70
2021/01/27 16:11:10;;;;;;;13.85;6.88;;;;;;;;;;6233826;28;20055;-69
2021/01/27 16:14:12;;;;;;;15.65;6.63;;;;;;;;;;6224727;28;20044;-69
2021/01/27 16:17:13;;;;;;;15.77;5.97;;;;;;;;;;6231370;28;20046;-69
2021/01/27 16:20:17;;;;;;;10.68;4.32;;;;;;;;;;6228599;28;20052;-70
2021/01/27 16:23:18;;;;;;;10.13;3.03;;;;;;;;;;6235280;28;20064;-69
2021/01/27 16:26:19;;;;;;;3.65;1.95;;;;;;;;;;6224007;28;20041;-70
2021/01/27 16:29:32;;;;;;;5.68;1.80;;;;;;;;;;6226641;28;20053;-69
2021/01/27 16:32:33;;;;;;;7.63;1.48;;;;;;;;;;6228948;28;20067;-69
2021/01/27 16:35:37;;;;;;;2.78;1.30;;;;;;;;;;6227510;28;20131;-69
2021/01/27 16:38:38;;;;;;;4.20;1.40;;;;;;;;;;6225075;28;20834;-70
2021/01/27 16:41:39;;;;;;;4.43;1.17;;;;;;;;;;6229319;28;20053;-69
2021/01/27 16:44:41;;;;;;;2.47;1.50;;;;;;;;;;6234822;28;20053;-70
2021/01/27 16:47:42;;;;;;;4.55;1.38;;;;;;;;;;6232552;28;20048;-70
2021/01/27 16:50:43;;;;;;;7.43;1.40;;;;;;;;;;6225054;28;20133;-69
2021/01/27 16:53:44;;;;;;;3.67;1.50;;;;;;;;;;6228097;28;20057;-69
2021/01/27 16:56:45;;;;;;;3.08;1.42;;;;;;;;;;6225813;28;20049;-70
2021/01/27 16:59:47;;;;;;;2.70;1.50;;;;;;;;;;6232166;28;20118;-70
2021/01/27 17:02:48;;;;;;;4.13;1.30;;;;;;;;;;6229573;28;20095;-71
2021/01/27 17:05:50;;;;;;;3.47;1.25;;;;;;;;;;6224073;28;20077;-69
2021/01/27 17:08:51;;;;;;;2.50;1.30;;;;;;;;;;6233283;28;20503;-71
2021/01/27 17:11:52;;;;;;;2.28;1.20;;;;;;;;;;6229493;28;20132;-69
2021/01/27 17:14:54;;;;;;;2.25;1.00;;;;;;;;;;6229230;28;20092;-69
2021/01/27 17:17:55;;;;;;;2.55;1.08;;;;;;;;;;6231353;28;20058;-69
2021/01/27 17:20:56;;;;;;;1.63;0.95;;;;;;;;;;6240179;28;20667;-71
2021/01/27 17:23:57;;;;;;;3.63;1.20;;;;;;;;;;6238027;28;20052;-69
2021/01/27 17:26:59;;;;;;;1.50;0.90;;;;;;;;;;6233334;28;20100;-69
2021/01/27 17:30:01;;;;;;;2.03;1.10;;;;;;;;;;6234703;28;20045;-69
2021/01/27 17:33:03;;;;;;;2.55;1.30;;;;;;;;;;6235067;28;20053;-69
2021/01/27 17:36:05;;;;;;;3.25;1.48;;;;;;;;;;6233210;28;20630;-69
2021/01/27 17:39:07;;;;;;;3.10;1.40;;;;;;;;;;6230185;28;20089;-69
2021/01/27 17:42:08;;;;;;;4.10;1.50;;;;;;;;;;6238398;28;20049;-69
2021/01/27 17:45:12;;;;;;;3.25;1.90;;;;;;;;;;6235143;28;21453;-70
2021/01/27 17:48:13;;;;;;;3.03;1.63;;;;;;;;;;6237495;28;20188;-69
2021/01/27 17:51:14;;;;;;;3.65;1.67;;;;;;;;;;6236407;28;20044;-69
2021/01/27 17:54:16;;;;;;;4.90;2.17;;;;;;;;;;6235367;28;20042;-71
2021/01/27 17:57:18;;;;;;;5.75;2.63;;;;;;;;;;6233739;28;20045;-69
2021/01/27 18:00:24;;;;;;;3.85;2.05;;;;;;;;;;6235200;28;20068;-70
2021/01/27 18:03:26;;;;;;;3.15;1.98;;;;;;;;;;6235842;28;20062;-70
2021/01/27 18:06:27;;;;;;;5.88;2.05;;;;;;;;;;6237848;28;20053;-69
2021/01/27 18:09:28;;;;;;;3.42;1.75;;;;;;;;;;6235990;28;20079;-69
2021/01/27 18:12:29;;;;;;;4.57;2.17;;;;;;;;;;6234697;28;20049;-69
2021/01/27 18:15:31;;;;;;;4.47;2.40;;;;;;;;;;6227355;28;20080;-69
2021/01/27 18:18:32;;;;;;;3.65;2.03;;;;;;;;;;6234546;28;20056;-69